sensor_id;sensor_type;location;lat;lon;timestamp;P1;durP1;ratioP1;P2;durP2;ratioP2
62709;SDS011;48770;51.624;5.886;2024-01-16T00:01:15;0.20;;;0.10;;
62709;SDS011;48770;51.624;5.886;2024-01-16T00:03:41;0.30;;;0.15;;
62709;SDS011;48770;51.624;5.886;2024-01-16T00:06:06;0.30;;;0.20;;
62709;SDS011;48770;51.624;5.886;2024-01-16T00:08:32;0.35;;;0.20;;
62709;SDS011;48770;51.624;5.886;2024-01-16T00:10:58;0.60;;;0.30;;
62709;SDS011;48770;51.624;5.886;2024-01-16T00:13:23;0.80;;;0.13;;
62709;SDS011;48770;51.624;5.886;2024-01-16T00:15:48;0.40;;;0.20;;
62709;SDS011;48770;51.624;5.886;2024-01-16T00:18:14;0.40;;;0.13;;
62709;SDS011;48770;51.624;5.886;2024-01-16T00:20:40;0.70;;;0.20;;
62709;SDS011;48770;51.624;5.886;2024-01-16T00:23:05;0.52;;;0.20;;
62709;SDS011;48770;51.624;5.886;2024-01-16T00:25:31;0.50;;;0.28;;
62709;SDS011;48770;51.624;5.886;2024-01-16T00:27:56;0.45;;;0.20;;
62709;SDS011;48770;51.624;5.886;2024-01-16T00:30:21;0.10;;;0.10;;
62709;SDS011;48770;51.624;5.886;2024-01-16T00:32:47;0.55;;;0.20;;
62709;SDS011;48770;51.624;5.886;2024-01-16T00:35:12;0.43;;;0.20;;
62709;SDS011;48770;51.624;5.886;2024-01-16T00:37:38;0.40;;;0.20;;
62709;SDS011;48770;51.624;5.886;2024-01-16T00:40:04;0.20;;;0.20;;
62709;SDS011;48770;51.624;5.886;2024-01-16T00:42:30;0.55;;;0.25;;
62709;SDS011;48770;51.624;5.886;2024-01-16T00:44:58;0.20;;;0.10;;
62709;SDS011;48770;51.624;5.886;2024-01-16T00:47:24;0.82;;;0.30;;
62709;SDS011;48770;51.624;5.886;2024-01-16T00:49:49;0.20;;;0.10;;
62709;SDS011;48770;51.624;5.886;2024-01-16T00:52:15;0.45;;;0.10;;
62709;SDS011;48770;51.624;5.886;2024-01-16T00:54:40;0.25;;;0.20;;
62709;SDS011;48770;51.624;5.886;2024-01-16T00:57:06;1.25;;;0.30;;
62709;SDS011;48770;51.624;5.886;2024-01-16T00:59:32;0.17;;;0.10;;
62709;SDS011;48770;51.624;5.886;2024-01-16T01:01:57;0.65;;;0.20;;
62709;SDS011;48770;51.624;5.886;2024-01-16T01:04:23;0.17;;;0.10;;
62709;SDS011;48770;51.624;5.886;2024-01-16T01:06:48;0.77;;;0.20;;
62709;SDS011;48770;51.624;5.886;2024-01-16T01:09:13;0.28;;;0.10;;
62709;SDS011;48770;51.624;5.886;2024-01-16T01:11:39;0.63;;;0.20;;
62709;SDS011;48770;51.624;5.886;2024-01-16T01:14:04;0.65;;;0.30;;
62709;SDS011;48770;51.624;5.886;2024-01-16T01:16:29;0.57;;;0.20;;
62709;SDS011;48770;51.624;5.886;2024-01-16T01:18:54;0.60;;;0.30;;
62709;SDS011;48770;51.624;5.886;2024-01-16T01:21:20;0.45;;;0.40;;
62709;SDS011;48770;51.624;5.886;2024-01-16T01:23:45;0.10;;;0.10;;
62709;SDS011;48770;51.624;5.886;2024-01-16T01:26:11;0.25;;;0.10;;
62709;SDS011;48770;51.624;5.886;2024-01-16T01:28:38;0.30;;;0.25;;
62709;SDS011;48770;51.624;5.886;2024-01-16T01:31:05;0.28;;;0.13;;
62709;SDS011;48770;51.624;5.886;2024-01-16T01:33:30;0.13;;;0.10;;
62709;SDS011;48770;51.624;5.886;2024-01-16T01:35:55;0.20;;;0.10;;
62709;SDS011;48770;51.624;5.886;2024-01-16T01:38:21;0.35;;;0.20;;
62709;SDS011;48770;51.624;5.886;2024-01-16T01:40:46;0.50;;;0.10;;
62709;SDS011;48770;51.624;5.886;2024-01-16T01:45:44;0.30;;;0.20;;
62709;SDS011;48770;51.624;5.886;2024-01-16T01:48:16;0.10;;;0.10;;
62709;SDS011;48770;51.624;5.886;2024-01-16T01:50:42;0.68;;;0.20;;
62709;SDS011;48770;51.624;5.886;2024-01-16T01:53:07;0.32;;;0.20;;
62709;SDS011;48770;51.624;5.886;2024-01-16T01:55:33;0.32;;;0.20;;
62709;SDS011;48770;51.624;5.886;2024-01-16T01:57:58;0.20;;;0.20;;
62709;SDS011;48770;51.624;5.886;2024-01-16T02:00:23;0.47;;;0.20;;
62709;SDS011;48770;51.624;5.886;2024-01-16T02:02:49;0.22;;;0.10;;
62709;SDS011;48770;51.624;5.886;2024-01-16T02:05:14;0.32;;;0.20;;
62709;SDS011;48770;51.624;5.886;2024-01-16T02:07:40;0.85;;;0.20;;
62709;SDS011;48770;51.624;5.886;2024-01-16T02:10:06;1.35;;;0.10;;
62709;SDS011;48770;51.624;5.886;2024-01-16T02:12:31;0.10;;;0.10;;
62709;SDS011;48770;51.624;5.886;2024-01-16T02:14:57;0.35;;;0.10;;
62709;SDS011;48770;51.624;5.886;2024-01-16T02:17:22;0.15;;;0.10;;
62709;SDS011;48770;51.624;5.886;2024-01-16T02:19:47;1.30;;;0.10;;
62709;SDS011;48770;51.624;5.886;2024-01-16T02:22:15;0.22;;;0.10;;
62709;SDS011;48770;51.624;5.886;2024-01-16T02:24:44;0.00;;;0.00;;
62709;SDS011;48770;51.624;5.886;2024-01-16T02:27:10;0.20;;;0.10;;
62709;SDS011;48770;51.624;5.886;2024-01-16T02:29:40;0.90;;;0.10;;
62709;SDS011;48770;51.624;5.886;2024-01-16T02:32:06;1.25;;;0.20;;
62709;SDS011;48770;51.624;5.886;2024-01-16T02:34:31;0.98;;;0.30;;
62709;SDS011;48770;51.624;5.886;2024-01-16T02:36:56;0.10;;;0.10;;
62709;SDS011;48770;51.624;5.886;2024-01-16T02:39:21;0.55;;;0.20;;
62709;SDS011;48770;51.624;5.886;2024-01-16T02:41:47;0.50;;;0.13;;
62709;SDS011;48770;51.624;5.886;2024-01-16T02:44:12;0.40;;;0.10;;
62709;SDS011;48770;51.624;5.886;2024-01-16T02:46:37;0.30;;;0.15;;
62709;SDS011;48770;51.624;5.886;2024-01-16T02:49:04;0.43;;;0.20;;
62709;SDS011;48770;51.624;5.886;2024-01-16T02:51:29;0.17;;;0.13;;
62709;SDS011;48770;51.624;5.886;2024-01-16T02:53:54;0.50;;;0.10;;
62709;SDS011;48770;51.624;5.886;2024-01-16T02:56:19;0.35;;;0.15;;
62709;SDS011;48770;51.624;5.886;2024-01-16T02:58:45;0.88;;;0.20;;
62709;SDS011;48770;51.624;5.886;2024-01-16T03:01:10;0.38;;;0.10;;
62709;SDS011;48770;51.624;5.886;2024-01-16T03:03:35;0.45;;;0.20;;
62709;SDS011;48770;51.624;5.886;2024-01-16T03:06:01;0.55;;;0.35;;
62709;SDS011;48770;51.624;5.886;2024-01-16T03:08:26;0.13;;;0.10;;
62709;SDS011;48770;51.624;5.886;2024-01-16T03:10:51;0.25;;;0.10;;
62709;SDS011;48770;51.624;5.886;2024-01-16T03:13:17;0.40;;;0.20;;
62709;SDS011;48770;51.624;5.886;2024-01-16T03:15:42;0.30;;;0.10;;
62709;SDS011;48770;51.624;5.886;2024-01-16T03:18:08;0.35;;;0.10;;
62709;SDS011;48770;51.624;5.886;2024-01-16T03:20:33;0.25;;;0.20;;
62709;SDS011;48770;51.624;5.886;2024-01-16T03:22:58;0.03;;;0.00;;
62709;SDS011;48770;51.624;5.886;2024-01-16T03:25:24;0.22;;;0.10;;
62709;SDS011;48770;51.624;5.886;2024-01-16T03:27:49;0.70;;;0.28;;
62709;SDS011;48770;51.624;5.886;2024-01-16T03:30:14;0.20;;;0.20;;
62709;SDS011;48770;51.624;5.886;2024-01-16T03:32:39;0.20;;;0.10;;
62709;SDS011;48770;51.624;5.886;2024-01-16T03:35:05;0.20;;;0.10;;
62709;SDS011;48770;51.624;5.886;2024-01-16T03:37:31;0.10;;;0.08;;
62709;SDS011;48770;51.624;5.886;2024-01-16T03:39:56;0.85;;;0.20;;
62709;SDS011;48770;51.624;5.886;2024-01-16T03:42:22;0.82;;;0.20;;
62709;SDS011;48770;51.624;5.886;2024-01-16T03:44:47;0.20;;;0.10;;
62709;SDS011;48770;51.624;5.886;2024-01-16T03:47:13;0.10;;;0.10;;
62709;SDS011;48770;51.624;5.886;2024-01-16T03:49:38;0.38;;;0.20;;
62709;SDS011;48770;51.624;5.886;2024-01-16T03:52:04;0.57;;;0.20;;
62709;SDS011;48770;51.624;5.886;2024-01-16T03:54:29;0.10;;;0.00;;
62709;SDS011;48770;51.624;5.886;2024-01-16T03:56:55;0.20;;;0.10;;
62709;SDS011;48770;51.624;5.886;2024-01-16T03:59:21;0.10;;;0.10;;
62709;SDS011;48770;51.624;5.886;2024-01-16T04:01:46;0.28;;;0.20;;
62709;SDS011;48770;51.624;5.886;2024-01-16T04:04:13;0.15;;;0.05;;
62709;SDS011;48770;51.624;5.886;2024-01-16T04:06:38;0.60;;;0.20;;
62709;SDS011;48770;51.624;5.886;2024-01-16T04:09:03;0.10;;;0.10;;
62709;SDS011;48770;51.624;5.886;2024-01-16T04:11:29;0.30;;;0.10;;
62709;SDS011;48770;51.624;5.886;2024-01-16T04:13:55;0.60;;;0.10;;
62709;SDS011;48770;51.624;5.886;2024-01-16T04:16:21;0.90;;;0.20;;
62709;SDS011;48770;51.624;5.886;2024-01-16T04:18:46;0.30;;;0.10;;
62709;SDS011;48770;51.624;5.886;2024-01-16T04:21:12;0.82;;;0.30;;
62709;SDS011;48770;51.624;5.886;2024-01-16T04:23:37;0.22;;;0.10;;
62709;SDS011;48770;51.624;5.886;2024-01-16T04:26:02;0.17;;;0.10;;
62709;SDS011;48770;51.624;5.886;2024-01-16T04:28:28;0.13;;;0.10;;
62709;SDS011;48770;51.624;5.886;2024-01-16T04:30:53;0.20;;;0.10;;
62709;SDS011;48770;51.624;5.886;2024-01-16T04:33:19;0.40;;;0.10;;
62709;SDS011;48770;51.624;5.886;2024-01-16T04:35:44;0.75;;;0.30;;
62709;SDS011;48770;51.624;5.886;2024-01-16T04:38:10;0.55;;;0.15;;
62709;SDS011;48770;51.624;5.886;2024-01-16T04:40:35;0.30;;;0.10;;
62709;SDS011;48770;51.624;5.886;2024-01-16T04:43:01;0.10;;;0.00;;
62709;SDS011;48770;51.624;5.886;2024-01-16T04:45:26;0.28;;;0.00;;
62709;SDS011;48770;51.624;5.886;2024-01-16T04:47:51;0.20;;;0.08;;
62709;SDS011;48770;51.624;5.886;2024-01-16T04:50:17;1.10;;;0.10;;
62709;SDS011;48770;51.624;5.886;2024-01-16T04:52:43;1.08;;;0.55;;
62709;SDS011;48770;51.624;5.886;2024-01-16T04:55:08;0.20;;;0.10;;
62709;SDS011;48770;51.624;5.886;2024-01-16T04:57:34;0.20;;;0.17;;
62709;SDS011;48770;51.624;5.886;2024-01-16T04:59:59;0.28;;;0.10;;
62709;SDS011;48770;51.624;5.886;2024-01-16T05:02:24;0.22;;;0.10;;
62709;SDS011;48770;51.624;5.886;2024-01-16T05:04:50;0.10;;;0.05;;
62709;SDS011;48770;51.624;5.886;2024-01-16T05:07:17;0.28;;;0.10;;
62709;SDS011;48770;51.624;5.886;2024-01-16T05:09:44;0.50;;;0.20;;
62709;SDS011;48770;51.624;5.886;2024-01-16T05:12:10;0.25;;;0.13;;
62709;SDS011;48770;51.624;5.886;2024-01-16T05:14:35;0.47;;;0.20;;
62709;SDS011;48770;51.624;5.886;2024-01-16T05:17:00;0.20;;;0.10;;
62709;SDS011;48770;51.624;5.886;2024-01-16T05:19:26;0.95;;;0.10;;
62709;SDS011;48770;51.624;5.886;2024-01-16T05:21:51;0.10;;;0.08;;
62709;SDS011;48770;51.624;5.886;2024-01-16T05:24:16;1.10;;;0.20;;
62709;SDS011;48770;51.624;5.886;2024-01-16T05:26:42;0.20;;;0.10;;
62709;SDS011;48770;51.624;5.886;2024-01-16T05:29:07;0.85;;;0.20;;
62709;SDS011;48770;51.624;5.886;2024-01-16T05:31:38;0.30;;;0.30;;
62709;SDS011;48770;51.624;5.886;2024-01-16T05:34:04;0.40;;;0.10;;
62709;SDS011;48770;51.624;5.886;2024-01-16T05:36:30;0.47;;;0.20;;
62709;SDS011;48770;51.624;5.886;2024-01-16T05:38:55;0.20;;;0.10;;
62709;SDS011;48770;51.624;5.886;2024-01-16T05:41:20;0.45;;;0.15;;
62709;SDS011;48770;51.624;5.886;2024-01-16T05:43:45;0.82;;;0.20;;
62709;SDS011;48770;51.624;5.886;2024-01-16T05:46:11;1.98;;;0.30;;
62709;SDS011;48770;51.624;5.886;2024-01-16T05:48:37;1.15;;;0.30;;
62709;SDS011;48770;51.624;5.886;2024-01-16T05:51:03;1.17;;;0.40;;
62709;SDS011;48770;51.624;5.886;2024-01-16T05:53:29;0.40;;;0.20;;
62709;SDS011;48770;51.624;5.886;2024-01-16T05:55:54;0.63;;;0.28;;
62709;SDS011;48770;51.624;5.886;2024-01-16T05:58:20;0.75;;;0.25;;
62709;SDS011;48770;51.624;5.886;2024-01-16T06:00:45;1.25;;;0.20;;
62709;SDS011;48770;51.624;5.886;2024-01-16T06:03:11;0.90;;;0.30;;
62709;SDS011;48770;51.624;5.886;2024-01-16T06:05:36;0.47;;;0.30;;
62709;SDS011;48770;51.624;5.886;2024-01-16T06:08:01;0.98;;;0.40;;
62709;SDS011;48770;51.624;5.886;2024-01-16T06:10:27;0.35;;;0.30;;
62709;SDS011;48770;51.624;5.886;2024-01-16T06:12:53;1.35;;;0.30;;
62709;SDS011;48770;51.624;5.886;2024-01-16T06:15:18;1.40;;;0.40;;
62709;SDS011;48770;51.624;5.886;2024-01-16T06:17:43;0.65;;;0.30;;
62709;SDS011;48770;51.624;5.886;2024-01-16T06:20:09;0.90;;;0.30;;
62709;SDS011;48770;51.624;5.886;2024-01-16T06:22:35;1.27;;;0.32;;
62709;SDS011;48770;51.624;5.886;2024-01-16T06:25:00;0.22;;;0.22;;
62709;SDS011;48770;51.624;5.886;2024-01-16T06:27:27;1.30;;;0.38;;
62709;SDS011;48770;51.624;5.886;2024-01-16T06:29:52;0.98;;;0.40;;
62709;SDS011;48770;51.624;5.886;2024-01-16T06:32:18;1.08;;;0.40;;
62709;SDS011;48770;51.624;5.886;2024-01-16T06:34:43;0.73;;;0.32;;
62709;SDS011;48770;51.624;5.886;2024-01-16T06:37:08;0.57;;;0.30;;
62709;SDS011;48770;51.624;5.886;2024-01-16T06:39:34;0.75;;;0.30;;
62709;SDS011;48770;51.624;5.886;2024-01-16T06:42:00;0.57;;;0.43;;
62709;SDS011;48770;51.624;5.886;2024-01-16T06:44:26;0.80;;;0.30;;
62709;SDS011;48770;51.624;5.886;2024-01-16T06:46:51;1.08;;;0.30;;
62709;SDS011;48770;51.624;5.886;2024-01-16T06:49:16;1.98;;;0.45;;
62709;SDS011;48770;51.624;5.886;2024-01-16T06:51:42;0.60;;;0.30;;
62709;SDS011;48770;51.624;5.886;2024-01-16T06:54:07;0.45;;;0.35;;
62709;SDS011;48770;51.624;5.886;2024-01-16T06:56:33;0.75;;;0.40;;
62709;SDS011;48770;51.624;5.886;2024-01-16T06:58:58;0.80;;;0.50;;
62709;SDS011;48770;51.624;5.886;2024-01-16T07:01:23;1.05;;;0.75;;
62709;SDS011;48770;51.624;5.886;2024-01-16T07:03:49;1.55;;;0.50;;
62709;SDS011;48770;51.624;5.886;2024-01-16T07:06:14;0.82;;;0.47;;
62709;SDS011;48770;51.624;5.886;2024-01-16T07:08:39;0.55;;;0.45;;
62709;SDS011;48770;51.624;5.886;2024-01-16T07:11:04;0.70;;;0.30;;
62709;SDS011;48770;51.624;5.886;2024-01-16T07:13:33;0.80;;;0.40;;
62709;SDS011;48770;51.624;5.886;2024-01-16T07:15:59;1.60;;;0.50;;
62709;SDS011;48770;51.624;5.886;2024-01-16T07:18:24;0.80;;;0.40;;
62709;SDS011;48770;51.624;5.886;2024-01-16T07:20:49;1.92;;;0.40;;
62709;SDS011;48770;51.624;5.886;2024-01-16T07:23:15;1.20;;;0.40;;
62709;SDS011;48770;51.624;5.886;2024-01-16T07:25:40;0.35;;;0.30;;
62709;SDS011;48770;51.624;5.886;2024-01-16T07:28:06;0.90;;;0.38;;
62709;SDS011;48770;51.624;5.886;2024-01-16T07:30:32;1.05;;;0.40;;
62709;SDS011;48770;51.624;5.886;2024-01-16T07:32:57;0.43;;;0.30;;
62709;SDS011;48770;51.624;5.886;2024-01-16T07:35:22;1.45;;;0.35;;
62709;SDS011;48770;51.624;5.886;2024-01-16T07:37:47;0.63;;;0.40;;
62709;SDS011;48770;51.624;5.886;2024-01-16T07:40:13;0.50;;;0.30;;
62709;SDS011;48770;51.624;5.886;2024-01-16T07:42:39;1.35;;;0.50;;
62709;SDS011;48770;51.624;5.886;2024-01-16T07:45:04;1.23;;;0.50;;
62709;SDS011;48770;51.624;5.886;2024-01-16T07:47:31;1.45;;;0.45;;
62709;SDS011;48770;51.624;5.886;2024-01-16T07:49:57;0.57;;;0.32;;
62709;SDS011;48770;51.624;5.886;2024-01-16T07:52:23;0.60;;;0.30;;
62709;SDS011;48770;51.624;5.886;2024-01-16T07:54:48;1.27;;;0.25;;
62709;SDS011;48770;51.624;5.886;2024-01-16T07:57:13;1.75;;;0.50;;
62709;SDS011;48770;51.624;5.886;2024-01-16T07:59:39;0.52;;;0.22;;
62709;SDS011;48770;51.624;5.886;2024-01-16T08:02:05;0.63;;;0.30;;
62709;SDS011;48770;51.624;5.886;2024-01-16T08:04:31;0.73;;;0.30;;
62709;SDS011;48770;51.624;5.886;2024-01-16T08:06:57;0.50;;;0.30;;
62709;SDS011;48770;51.624;5.886;2024-01-16T08:09:22;0.60;;;0.30;;
62709;SDS011;48770;51.624;5.886;2024-01-16T08:11:47;0.85;;;0.43;;
62709;SDS011;48770;51.624;5.886;2024-01-16T08:14:13;0.57;;;0.30;;
62709;SDS011;48770;51.624;5.886;2024-01-16T08:16:38;0.82;;;0.47;;
62709;SDS011;48770;51.624;5.886;2024-01-16T08:19:03;0.70;;;0.40;;
62709;SDS011;48770;51.624;5.886;2024-01-16T08:21:29;1.45;;;0.30;;
62709;SDS011;48770;51.624;5.886;2024-01-16T08:23:54;0.75;;;0.32;;
62709;SDS011;48770;51.624;5.886;2024-01-16T08:26:19;0.45;;;0.30;;
62709;SDS011;48770;51.624;5.886;2024-01-16T08:28:45;1.67;;;0.40;;
62709;SDS011;48770;51.624;5.886;2024-01-16T08:31:10;1.17;;;0.30;;
62709;SDS011;48770;51.624;5.886;2024-01-16T08:33:36;0.65;;;0.20;;
62709;SDS011;48770;51.624;5.886;2024-01-16T08:36:02;0.45;;;0.25;;
62709;SDS011;48770;51.624;5.886;2024-01-16T08:38:29;0.80;;;0.25;;
62709;SDS011;48770;51.624;5.886;2024-01-16T08:40:54;3.80;;;0.40;;
62709;SDS011;48770;51.624;5.886;2024-01-16T08:43:20;1.13;;;0.40;;
62709;SDS011;48770;51.624;5.886;2024-01-16T08:45:45;1.45;;;0.47;;
62709;SDS011;48770;51.624;5.886;2024-01-16T08:48:12;1.20;;;0.30;;
62709;SDS011;48770;51.624;5.886;2024-01-16T08:50:39;0.50;;;0.30;;
62709;SDS011;48770;51.624;5.886;2024-01-16T08:53:05;1.55;;;0.30;;
62709;SDS011;48770;51.624;5.886;2024-01-16T08:55:31;0.57;;;0.40;;
62709;SDS011;48770;51.624;5.886;2024-01-16T08:57:57;0.85;;;0.40;;
62709;SDS011;48770;51.624;5.886;2024-01-16T09:00:22;0.68;;;0.40;;
62709;SDS011;48770;51.624;5.886;2024-01-16T09:02:48;0.75;;;0.40;;
62709;SDS011;48770;51.624;5.886;2024-01-16T09:05:13;0.73;;;0.22;;
62709;SDS011;48770;51.624;5.886;2024-01-16T09:07:39;0.63;;;0.30;;
62709;SDS011;48770;51.624;5.886;2024-01-16T09:10:05;1.13;;;0.40;;
62709;SDS011;48770;51.624;5.886;2024-01-16T09:12:30;1.02;;;0.40;;
62709;SDS011;48770;51.624;5.886;2024-01-16T09:14:56;0.88;;;0.30;;
62709;SDS011;48770;51.624;5.886;2024-01-16T09:17:21;3.13;;;0.40;;
62709;SDS011;48770;51.624;5.886;2024-01-16T09:19:46;0.65;;;0.45;;
62709;SDS011;48770;51.624;5.886;2024-01-16T09:22:12;0.60;;;0.30;;
62709;SDS011;48770;51.624;5.886;2024-01-16T09:24:37;1.55;;;0.30;;
62709;SDS011;48770;51.624;5.886;2024-01-16T09:27:02;1.17;;;0.57;;
62709;SDS011;48770;51.624;5.886;2024-01-16T09:29:31;1.60;;;0.60;;
62709;SDS011;48770;51.624;5.886;2024-01-16T09:31:56;1.33;;;0.55;;
62709;SDS011;48770;51.624;5.886;2024-01-16T09:34:22;1.15;;;0.40;;
62709;SDS011;48770;51.624;5.886;2024-01-16T09:36:47;0.63;;;0.40;;
62709;SDS011;48770;51.624;5.886;2024-01-16T09:39:12;0.40;;;0.30;;
62709;SDS011;48770;51.624;5.886;2024-01-16T09:41:38;1.38;;;0.40;;
62709;SDS011;48770;51.624;5.886;2024-01-16T09:44:04;0.98;;;0.30;;
62709;SDS011;48770;51.624;5.886;2024-01-16T09:46:30;0.82;;;0.43;;
62709;SDS011;48770;51.624;5.886;2024-01-16T09:48:56;0.75;;;0.40;;
62709;SDS011;48770;51.624;5.886;2024-01-16T09:51:24;0.45;;;0.30;;
62709;SDS011;48770;51.624;5.886;2024-01-16T09:53:49;1.75;;;0.52;;
62709;SDS011;48770;51.624;5.886;2024-01-16T09:56:18;1.25;;;0.60;;
62709;SDS011;48770;51.624;5.886;2024-01-16T09:58:48;1.00;;;0.50;;
62709;SDS011;48770;51.624;5.886;2024-01-16T10:01:14;0.40;;;0.22;;
62709;SDS011;48770;51.624;5.886;2024-01-16T10:03:40;0.57;;;0.38;;
62709;SDS011;48770;51.624;5.886;2024-01-16T10:06:09;0.60;;;0.30;;
62709;SDS011;48770;51.624;5.886;2024-01-16T10:08:36;0.73;;;0.40;;
62709;SDS011;48770;51.624;5.886;2024-01-16T10:11:02;1.25;;;0.30;;
62709;SDS011;48770;51.624;5.886;2024-01-16T10:13:27;0.52;;;0.40;;
62709;SDS011;48770;51.624;5.886;2024-01-16T10:15:54;1.70;;;0.50;;
62709;SDS011;48770;51.624;5.886;2024-01-16T10:18:24;1.00;;;0.35;;
62709;SDS011;48770;51.624;5.886;2024-01-16T10:20:50;1.17;;;0.30;;
62709;SDS011;48770;51.624;5.886;2024-01-16T10:23:25;0.77;;;0.30;;
62709;SDS011;48770;51.624;5.886;2024-01-16T10:26:07;0.80;;;0.30;;
62709;SDS011;48770;51.624;5.886;2024-01-16T10:28:36;0.45;;;0.20;;
62709;SDS011;48770;51.624;5.886;2024-01-16T10:31:03;1.55;;;0.52;;
62709;SDS011;48770;51.624;5.886;2024-01-16T10:33:29;0.90;;;0.40;;
62709;SDS011;48770;51.624;5.886;2024-01-16T10:36:07;0.45;;;0.30;;
62709;SDS011;48770;51.624;5.886;2024-01-16T10:38:35;0.43;;;0.40;;
62709;SDS011;48770;51.624;5.886;2024-01-16T10:41:14;1.50;;;0.40;;
62709;SDS011;48770;51.624;5.886;2024-01-16T10:43:40;1.00;;;0.50;;
62709;SDS011;48770;51.624;5.886;2024-01-16T10:46:08;0.85;;;0.30;;
62709;SDS011;48770;51.624;5.886;2024-01-16T10:48:42;0.77;;;0.40;;
62709;SDS011;48770;51.624;5.886;2024-01-16T10:51:15;0.70;;;0.40;;
62709;SDS011;48770;51.624;5.886;2024-01-16T10:53:44;0.70;;;0.40;;
62709;SDS011;48770;51.624;5.886;2024-01-16T10:56:11;1.33;;;0.40;;
62709;SDS011;48770;51.624;5.886;2024-01-16T10:58:38;0.98;;;0.50;;
62709;SDS011;48770;51.624;5.886;2024-01-16T11:01:06;0.85;;;0.38;;
62709;SDS011;48770;51.624;5.886;2024-01-16T11:06:14;0.60;;;0.30;;
62709;SDS011;48770;51.624;5.886;2024-01-16T11:08:46;0.57;;;0.40;;
62709;SDS011;48770;51.624;5.886;2024-01-16T11:11:16;0.70;;;0.35;;
62709;SDS011;48770;51.624;5.886;2024-01-16T11:13:42;0.77;;;0.40;;
62709;SDS011;48770;51.624;5.886;2024-01-16T11:16:12;1.10;;;0.30;;
62709;SDS011;48770;51.624;5.886;2024-01-16T11:18:37;1.10;;;0.40;;
62709;SDS011;48770;51.624;5.886;2024-01-16T11:21:13;1.45;;;0.40;;
62709;SDS011;48770;51.624;5.886;2024-01-16T11:23:40;0.52;;;0.20;;
62709;SDS011;48770;51.624;5.886;2024-01-16T11:28:57;0.95;;;0.50;;
62709;SDS011;48770;51.624;5.886;2024-01-16T11:31:31;0.47;;;0.30;;
62709;SDS011;48770;51.624;5.886;2024-01-16T11:33:58;0.95;;;0.30;;
62709;SDS011;48770;51.624;5.886;2024-01-16T11:36:42;0.88;;;0.50;;
62709;SDS011;48770;51.624;5.886;2024-01-16T11:39:19;0.60;;;0.40;;
62709;SDS011;48770;51.624;5.886;2024-01-16T11:41:49;0.30;;;0.30;;
62709;SDS011;48770;51.624;5.886;2024-01-16T11:44:51;0.68;;;0.35;;
62709;SDS011;48770;51.624;5.886;2024-01-16T11:47:21;0.68;;;0.40;;
62709;SDS011;48770;51.624;5.886;2024-01-16T11:49:49;0.65;;;0.30;;
62709;SDS011;48770;51.624;5.886;2024-01-16T11:52:39;1.67;;;0.40;;
62709;SDS011;48770;51.624;5.886;2024-01-16T12:00:32;1.05;;;0.50;;
62709;SDS011;48770;51.624;5.886;2024-01-16T12:02:58;0.82;;;0.50;;
62709;SDS011;48770;51.624;5.886;2024-01-16T12:05:28;2.00;;;0.43;;
62709;SDS011;48770;51.624;5.886;2024-01-16T12:07:53;0.65;;;0.40;;
62709;SDS011;48770;51.624;5.886;2024-01-16T12:10:20;0.95;;;0.55;;
62709;SDS011;48770;51.624;5.886;2024-01-16T12:12:47;1.02;;;0.43;;
62709;SDS011;48770;51.624;5.886;2024-01-16T12:15:20;0.65;;;0.40;;
62709;SDS011;48770;51.624;5.886;2024-01-16T12:20:21;6.85;;;0.50;;
62709;SDS011;48770;51.624;5.886;2024-01-16T12:22:54;3.45;;;0.50;;
62709;SDS011;48770;51.624;5.886;2024-01-16T12:25:21;1.63;;;0.60;;
62709;SDS011;48770;51.624;5.886;2024-01-16T12:27:53;1.15;;;0.68;;
62709;SDS011;48770;51.624;5.886;2024-01-16T12:30:30;3.60;;;0.70;;
62709;SDS011;48770;51.624;5.886;2024-01-16T12:33:03;1.42;;;0.52;;
62709;SDS011;48770;51.624;5.886;2024-01-16T12:35:32;2.22;;;0.70;;
62709;SDS011;48770;51.624;5.886;2024-01-16T12:38:02;5.65;;;0.40;;
62709;SDS011;48770;51.624;5.886;2024-01-16T12:40:34;2.65;;;0.40;;
62709;SDS011;48770;51.624;5.886;2024-01-16T12:43:01;2.55;;;0.55;;
62709;SDS011;48770;51.624;5.886;2024-01-16T12:45:27;0.85;;;0.43;;
62709;SDS011;48770;51.624;5.886;2024-01-16T12:47:53;0.93;;;0.43;;
62709;SDS011;48770;51.624;5.886;2024-01-16T12:50:23;2.40;;;0.70;;
62709;SDS011;48770;51.624;5.886;2024-01-16T12:52:50;1.13;;;0.40;;
62709;SDS011;48770;51.624;5.886;2024-01-16T12:55:26;2.67;;;0.55;;
62709;SDS011;48770;51.624;5.886;2024-01-16T12:58:11;0.63;;;0.40;;
62709;SDS011;48770;51.624;5.886;2024-01-16T13:00:49;2.80;;;0.40;;
62709;SDS011;48770;51.624;5.886;2024-01-16T13:03:16;0.70;;;0.38;;
62709;SDS011;48770;51.624;5.886;2024-01-16T13:05:43;1.65;;;0.50;;
62709;SDS011;48770;51.624;5.886;2024-01-16T13:08:09;2.08;;;0.55;;
62709;SDS011;48770;51.624;5.886;2024-01-16T13:10:34;2.67;;;0.55;;
62709;SDS011;48770;51.624;5.886;2024-01-16T13:13:20;1.20;;;0.47;;
62709;SDS011;48770;51.624;5.886;2024-01-16T13:15:46;1.85;;;0.40;;
62709;SDS011;48770;51.624;5.886;2024-01-16T13:18:22;1.13;;;0.68;;
62709;SDS011;48770;51.624;5.886;2024-01-16T13:20:55;0.88;;;0.35;;
62709;SDS011;48770;51.624;5.886;2024-01-16T13:23:21;0.75;;;0.40;;
62709;SDS011;48770;51.624;5.886;2024-01-16T13:25:47;0.82;;;0.40;;
62709;SDS011;48770;51.624;5.886;2024-01-16T13:28:17;1.42;;;0.50;;
62709;SDS011;48770;51.624;5.886;2024-01-16T13:30:44;0.95;;;0.47;;
62709;SDS011;48770;51.624;5.886;2024-01-16T13:33:11;1.40;;;0.40;;
62709;SDS011;48770;51.624;5.886;2024-01-16T13:35:41;0.75;;;0.38;;
62709;SDS011;48770;51.624;5.886;2024-01-16T13:38:07;0.65;;;0.30;;
62709;SDS011;48770;51.624;5.886;2024-01-16T13:40:33;1.73;;;0.40;;
62709;SDS011;48770;51.624;5.886;2024-01-16T13:43:00;1.40;;;0.30;;
62709;SDS011;48770;51.624;5.886;2024-01-16T13:45:27;1.25;;;0.52;;
62709;SDS011;48770;51.624;5.886;2024-01-16T13:47:53;0.85;;;0.40;;
62709;SDS011;48770;51.624;5.886;2024-01-16T13:50:21;0.60;;;0.30;;
62709;SDS011;48770;51.624;5.886;2024-01-16T13:52:47;1.52;;;0.50;;
62709;SDS011;48770;51.624;5.886;2024-01-16T13:55:13;0.55;;;0.40;;
62709;SDS011;48770;51.624;5.886;2024-01-16T13:57:38;0.57;;;0.30;;
62709;SDS011;48770;51.624;5.886;2024-01-16T14:00:05;1.00;;;0.35;;
62709;SDS011;48770;51.624;5.886;2024-01-16T14:02:32;0.65;;;0.35;;
62709;SDS011;48770;51.624;5.886;2024-01-16T14:05:02;0.57;;;0.40;;
62709;SDS011;48770;51.624;5.886;2024-01-16T14:07:27;0.73;;;0.35;;
62709;SDS011;48770;51.624;5.886;2024-01-16T14:09:53;1.17;;;0.50;;
62709;SDS011;48770;51.624;5.886;2024-01-16T14:12:18;0.85;;;0.40;;
62709;SDS011;48770;51.624;5.886;2024-01-16T14:14:44;0.90;;;0.43;;
62709;SDS011;48770;51.624;5.886;2024-01-16T14:17:10;1.13;;;0.40;;
62709;SDS011;48770;51.624;5.886;2024-01-16T14:19:36;0.40;;;0.30;;
62709;SDS011;48770;51.624;5.886;2024-01-16T14:22:01;2.63;;;0.40;;
62709;SDS011;48770;51.624;5.886;2024-01-16T14:24:26;1.30;;;0.30;;
62709;SDS011;48770;51.624;5.886;2024-01-16T14:26:52;0.63;;;0.50;;
62709;SDS011;48770;51.624;5.886;2024-01-16T14:29:17;0.73;;;0.45;;
62709;SDS011;48770;51.624;5.886;2024-01-16T14:31:43;0.60;;;0.30;;
62709;SDS011;48770;51.624;5.886;2024-01-16T14:34:13;0.32;;;0.30;;
62709;SDS011;48770;51.624;5.886;2024-01-16T14:36:39;0.52;;;0.40;;
62709;SDS011;48770;51.624;5.886;2024-01-16T14:39:05;1.35;;;0.57;;
62709;SDS011;48770;51.624;5.886;2024-01-16T14:41:30;1.20;;;0.32;;
62709;SDS011;48770;51.624;5.886;2024-01-16T14:43:56;0.32;;;0.32;;
62709;SDS011;48770;51.624;5.886;2024-01-16T14:46:22;0.95;;;0.40;;
62709;SDS011;48770;51.624;5.886;2024-01-16T14:48:47;1.65;;;0.68;;
62709;SDS011;48770;51.624;5.886;2024-01-16T14:51:13;1.50;;;0.35;;
62709;SDS011;48770;51.624;5.886;2024-01-16T14:53:38;1.13;;;0.40;;
62709;SDS011;48770;51.624;5.886;2024-01-16T14:56:04;0.57;;;0.50;;
62709;SDS011;48770;51.624;5.886;2024-01-16T14:58:30;1.52;;;0.43;;
62709;SDS011;48770;51.624;5.886;2024-01-16T15:00:56;2.58;;;0.45;;